EW5678 Weather Reports


time (UTC)temp
C
wind
direction
speed
KPH
gust
KPH
rain 1hr
cm
rain 24hr
cm
rain mn
cm
humidity
%
barometer
mb
20210920054620 18 136 3.2 8.0 0.00 0.00 0.00 82 1007.4
20210920053720 18 135 4.8 8.0 0.00 0.00 0.00 82 1007.3
20210920052820 18 136 4.8 9.7 0.00 0.00 0.00 82 1007.3
20210920051920 18 136 6.4 9.7 0.00 0.00 0.00 83 1007.3
20210920051020 18 136 3.2 9.7 0.00 0.00 0.00 83 1007.3
20210920050121 18 136 3.2 8.0 0.00 0.00 0.00 83 1007.3
20210920045219 19 136 4.8 9.7 0.00 0.00 0.00 82 1007.1
20210920044319 19 136 0.0 6.4 0.00 0.00 0.00 80 1007.1
20210920043419 19 136 3.2 8.0 0.00 0.00 0.00 81 1007.1
20210920042520 19 136 4.8 9.7 0.00 0.00 0.00 80 1007.1
20210920041620 19 136 3.2 8.0 0.00 0.00 0.00 80 1007.1
20210920040721 19 135 0.0 3.2 0.00 0.00 0.00 79 1007.0
20210920035821 19 135 0.0 3.2 0.00 0.00 0.00 81 1006.9
20210920034920 19 136 1.6 6.4 0.00 0.00 0.00 81 1006.9
20210920034021 19 136 4.8 9.7 0.00 0.00 0.00 81 1007.0
20210920033120 19 135 6.4 9.7 0.00 0.00 0.00 81 1007.0
20210920032220 19 135 4.8 9.7 0.00 0.00 0.00 80 1007.0
20210920031320 19 135 6.4 11.3 0.00 0.00 0.00 80 1006.9
20210920030422 19 136 6.4 9.7 0.00 0.00 0.00 80 1006.8
20210920025521 19 136 6.4 9.7 0.00 0.00 0.00 79 1006.7
20210920024620 19 136 4.8 9.7 0.00 0.00 0.00 80 1006.6
20210920023720 19 135 4.8 9.7 0.00 0.00 0.00 80 1006.6
20210920022820 19 135 4.8 9.7 0.00 0.00 0.00 81 1006.4
20210920021921 19 136 3.2 11.3 0.00 0.00 0.00 81 1006.3
20210920021022 18 136 3.2 12.9 0.00 0.00 0.00 82 1006.3
20210920020120 18 136 1.6 9.7 0.00 0.00 0.00 82 1006.2
20210920015220 18 136 3.2 8.0 0.00 0.00 0.00 82 1006.1
20210920014321 18 135 3.2 6.4 0.00 0.00 0.00 82 1006.0
20210920013421 18 135 3.2 9.7 0.00 0.00 0.00 82 1006.0
20210920012520 18 136 1.6 6.4 0.00 0.00 0.00 83 1005.9
20210920011620 18 136 3.2 6.4 0.00 0.00 0.00 83 1005.9
20210920010720 19 136 1.6 6.4 0.00 0.00 0.00 82 1005.9
20210920005822 19 136 1.6 4.8 0.00 0.00 0.00 82 1005.8
20210920004921 19 135 1.6 6.4 0.00 0.00 0.00 81 1005.8
20210920004021 19 136 3.2 8.0 0.00 0.00 0.00 80 1005.7
20210920003121 19 136 3.2 6.4 0.00 0.00 0.00 80 1005.6
20210920002221 19 136 3.2 6.4 0.00 0.00 0.00 79 1005.5
20210920001321 19 136 3.2 9.7 0.00 0.00 0.00 79 1005.4
20210920000421 19 136 3.2 9.7 0.00 0.00 0.00 77 1005.2
20210919235521 20 136 1.6 6.4 0.00 0.00 0.00 72 1005.1
20210919234620 20 136 0.0 4.8 0.00 0.00 0.00 54 1004.9
20210919233720 20 136 0.0 3.2 0.00 0.00 0.00 54 1004.8
20210919232820 20 136 1.6 4.8 0.00 0.00 0.00 55 1004.7
20210919231921 20 136 1.6 4.8 0.00 0.00 0.00 54 1004.6
20210919231021 21 136 0.0 8.0 0.00 0.00 0.00 54 1004.5
20210919230120 21 136 1.6 8.0 0.00 0.00 0.00 54 1004.5
20210919225220 21 136 0.0 3.2 0.00 0.00 0.00 53 1004.4
20210919224320 21 136 3.2 4.8 0.00 0.00 0.00 51 1004.3
20210919223420 22 136 0.0 4.8 0.00 0.00 0.00 50 1004.4
20210919222520 22 136 0.0 3.2 0.00 0.00 0.00 49 1004.3
20210919221620 22 136 0.0 1.6 0.00 0.00 0.00 50 1004.4
20210919220721 22 136 0.0 3.2 0.00 0.00 0.00 50 1004.3
20210919215820 22 136 0.0 3.2 0.00 0.00 0.00 49 1004.2
20210919214921 22 136 0.0 3.2 0.00 0.00 0.00 49 1004.0
20210919214021 22 136 1.6 6.4 0.00 0.00 0.00 51 1004.0
20210919213121 22 136 1.6 9.7 0.00 0.00 0.00 50 1004.0
20210919212221 22 136 1.6 8.0 0.00 0.00 0.00 51 1004.0
20210919211321 21 136 4.8 8.0 0.00 0.00 0.00 50 1003.9
20210919210422 22 136 1.6 8.0 0.00 0.00 0.00 49 1003.9
20210919205521 22 136 6.4 17.7 0.00 0.00 0.00 50 1003.9
20210919204621 22 136 6.4 14.5 0.00 0.00 0.00 51 1004.0
20210919203720 22 136 8.0 16.1 0.00 0.00 0.00 48 1003.9
20210919202820 21 136 9.7 19.3 0.00 0.00 0.00 48 1003.9
20210919201922 21 136 8.0 14.5 0.00 0.00 0.00 48 1003.9
20210919201020 21 136 6.4 12.9 0.00 0.00 0.00 49 1004.1
20210919200120 21 136 8.0 16.1 0.00 0.00 0.00 52 1004.1
20210919195221 21 136 14.5 24.1 0.00 0.00 0.00 49 1004.0
20210919194320 21 136 14.5 24.1 0.00 0.00 0.00 50 1004.1
20210919193421 21 136 14.5 22.5 0.00 0.00 0.00 49 1004.2
20210919192520 21 136 16.1 25.7 0.00 0.00 0.00 48 1004.2
20210919191620 21 135 12.9 20.9 0.00 0.00 0.00 49 1004.1
20210919190721 21 135 9.7 19.3 0.00 0.00 0.00 56 1004.2
20210919185820 21 136 11.3 27.4 0.00 0.00 0.00 54 1004.2
20210919184920 21 136 16.1 27.4 0.00 0.00 0.00 55 1004.3
20210919184021 21 135 12.9 22.5 0.00 0.00 0.00 55 1004.3
20210919183121 21 136 12.9 27.4 0.00 0.00 0.00 54 1004.3
20210919182222 21 136 16.1 27.4 0.00 0.00 0.00 57 1004.4
20210919181320 20 135 19.3 29.0 0.00 0.00 0.00 54 1004.4
20210919180421 20 135 17.7 27.4 0.00 0.00 0.00 58 1004.5
20210919175520 20 135 17.7 27.4 0.00 0.00 0.00 59 1004.4
20210919174621 20 136 16.1 35.4 0.00 0.00 0.00 62 1004.6
20210919173721 20 135 22.5 33.8 0.00 0.00 0.00 65 1004.6
20210919172821 20 136 22.5 33.8 0.00 0.00 0.00 63 1004.4
20210919171920 20 136 16.1 30.6 0.00 0.00 0.00 62 1004.4
20210919171020 20 135 17.7 29.0 0.00 0.00 0.00 66 1004.5
20210919170121 20 135 20.9 32.2 0.00 0.00 0.00 64 1004.5
20210919165221 20 135 19.3 33.8 0.00 0.00 0.00 68 1004.5
20210919164321 19 136 22.5 32.2 0.00 0.00 0.00 69 1004.6
20210919163420 19 135 24.1 35.4 0.00 0.00 0.00 68 1004.4
20210919162521 19 135 25.7 40.2 0.00 0.00 0.00 69 1004.5
20210919161620 19 135 25.7 37.0 0.00 0.00 0.00 69 1004.5
20210919160720 18 135 33.8 46.7 0.00 0.00 0.00 70 1004.3
20210919155821 18 135 40.2 46.7 0.00 0.00 0.00 70 1004.2
20210919154921 18 135 35.4 48.3 0.00 0.00 0.00 70 1004.2
20210919154021 18 135 32.2 43.5 0.00 0.00 0.00 71 1004.2
20210919153120 18 135 24.1 38.6 0.00 0.00 0.00 72 1004.1
20210919152222 19 135 22.5 35.4 0.00 0.00 0.00 71 1004.1
20210919151321 18 135 27.4 40.2 0.00 0.00 0.00 72 1004.0
20210919150421 18 136 20.9 35.4 0.00 0.00 0.00 70 1004.0
20210919145522 18 136 20.9 35.4 0.00 0.00 0.00 71 1004.1
20210919144621 18 135 24.1 37.0 0.00 0.00 0.00 71 1004.0
20210919143722 18 135 30.6 43.5 0.00 0.00 0.00 72 1004.1
20210919142821 18 135 33.8 45.1 0.00 0.00 0.00 72 1004.1
20210919141922 18 135 27.4 45.1 0.00 0.00 0.00 71 1004.1
20210919141021 18 135 32.2 48.3 0.00 0.00 0.00 72 1004.1
20210919140121 18 135 33.8 49.9 0.00 0.00 0.00 72 1004.0
20210919135221 18 135 27.4 41.8 0.00 0.00 0.00 71 1003.9
20210919134321 18 135 27.4 45.1 0.00 0.00 0.00 71 1003.9
20210919133421 18 135 27.4 40.2 0.00 0.00 0.00 69 1003.8
20210919132521 18 135 27.4 46.7 0.00 0.00 0.00 71 1003.8
20210919131621 17 135 27.4 43.5 0.00 0.00 0.00 73 1003.7
20210919130720 17 135 30.6 48.3 0.00 0.00 0.00 72 1003.6
20210919125822 17 135 30.6 48.3 0.00 0.00 0.00 71 1003.5
20210919124920 17 135 33.8 48.3 0.00 0.00 0.00 70 1003.3
20210919124021 17 135 29.0 45.1 0.00 0.00 0.00 73 1003.4
20210919123123 17 135 27.4 40.2 0.00 0.00 0.00 73 1003.4
20210919122220 17 135 27.4 46.7 0.00 0.00 0.00 75 1003.3
20210919121321 17 135 30.6 46.7 0.00 0.00 0.00 73 1003.2
20210919120421 17 136 29.0 41.8 0.00 0.00 0.00 74 1003.2
20210919115521 17 135 29.0 46.7 0.00 0.00 0.00 76 1003.1
20210919114622 17 135 27.4 43.5 0.00 0.00 0.00 77 1002.9
20210919113723 17 135 25.7 38.6 0.00 0.00 0.00 80 1002.9
20210919112821 17 136 27.4 37.0 0.00 0.00 0.00 81 1002.8
20210919111922 17 136 27.4 37.0 0.00 0.00 0.00 81 1002.6
20210919111021 17 136 27.4 37.0 0.00 0.00 0.00 81 1002.5
20210919110122 17 135 25.7 33.8 0.00 0.00 0.00 80 1002.4
20210919105221 17 136 24.1 35.4 0.00 0.00 0.00 81 1002.2
20210919104322 17 136 24.1 33.8 0.00 0.00 0.00 80 1002.1
20210919103421 17 135 17.7 27.4 0.00 0.00 0.00 81 1002.0
20210919102521 17 135 20.9 32.2 0.00 0.00 0.00 83 1001.9
20210919101621 17 136 20.9 33.8 0.00 0.00 0.00 83 1001.8
20210919100722 18 135 22.5 35.4 0.00 0.00 0.00 83 1001.7
20210919095822 18 135 24.1 32.2 0.00 0.00 0.00 82 1001.5
20210919094922 18 135 25.7 37.0 0.00 0.00 0.00 82 1001.4
20210919094021 18 135 24.1 37.0 0.00 0.00 0.00 81 1001.3
20210919093121 18 135 25.7 35.4 0.00 0.00 0.00 81 1001.2
20210919092221 18 135 25.7 37.0 0.00 0.00 0.00 81 1001.1
20210919091321 18 135 24.1 32.2 0.00 0.00 0.00 82 1001.0
20210919090422 19 135 24.1 35.4 0.00 0.00 0.00 82 1000.9
20210919085522 19 135 27.4 43.5 0.00 0.00 0.00 82 1000.9
20210919084622 19 135 29.0 43.5 0.00 0.00 0.00 81 1000.8
20210919083721 19 135 27.4 38.6 0.00 0.00 0.00 82 1000.8
20210919082821 19 135 27.4 37.0 0.00 0.00 0.00 83 1000.8
20210919081921 20 135 25.7 35.4 0.00 0.00 0.00 83 1000.7
20210919081022 20 135 25.7 35.4 0.00 0.00 0.00 84 1000.6
20210919080122 20 136 24.1 35.4 0.00 0.00 0.00 84 1000.6
20210919075222 20 135 24.1 33.8 0.00 0.00 0.00 85 1000.6
20210919074321 20 136 27.4 38.6 0.00 0.00 0.00 84 1000.4
20210919073423 20 136 29.0 40.2 0.00 0.00 0.00 85 1000.4
20210919072521 20 135 25.7 37.0 0.00 0.00 0.00 84 1000.5
20210919071621 20 136 27.4 37.0 0.00 0.00 0.00 83 1000.4
20210919070722 20 136 30.6 40.2 0.00 0.00 0.00 83 1000.4
20210919065822 21 135 25.7 35.4 0.00 0.00 0.00 83 1000.3
20210919064921 21 136 24.1 35.4 0.00 0.00 0.00 84 1000.3
20210919064021 21 136 29.0 46.7 0.00 0.00 0.00 83 1000.3
20210919063122 21 135 29.0 46.7 0.00 0.00 0.00 84 1000.4
20210919062221 21 135 27.4 40.2 0.00 0.00 0.00 84 1000.5
20210919061321 21 136 27.4 38.6 0.00 0.00 0.00 85 1000.6
20210919060422 21 135 25.7 38.6 0.00 0.00 0.00 86 1000.6
20210919055521 21 135 25.7 35.4 0.00 0.00 0.00 87 1000.6